createdAt,value
2019-01-31T00:00:40.760Z,-1.6
2019-01-31T00:01:40.650Z,-1.6
2019-01-31T00:02:40.994Z,-1.6
2019-01-31T00:03:40.894Z,-1.6
2019-01-31T00:04:41.141Z,-1.6
2019-01-31T00:05:41.039Z,-1.7
2019-01-31T00:06:40.920Z,-1.7
2019-01-31T00:07:40.798Z,-1.6
2019-01-31T00:08:46.865Z,-1.6
2019-01-31T00:09:46.748Z,-1.5
2019-01-31T00:10:46.655Z,-1.4
2019-01-31T00:11:46.561Z,-1.4
2019-01-31T00:12:46.866Z,-1.4
2019-01-31T00:13:46.741Z,-1.3
2019-01-31T00:14:46.838Z,-1.3
2019-01-31T00:15:46.760Z,-1.2
2019-01-31T00:16:46.670Z,-1.2
2019-01-31T00:17:46.550Z,-1.2
2019-01-31T00:18:46.668Z,-1.2
2019-01-31T00:19:46.554Z,-1.2
2019-01-31T00:20:46.446Z,-1.3
2019-01-31T00:21:46.348Z,-1.3
2019-01-31T00:22:46.680Z,-1.3
2019-01-31T00:23:46.562Z,-1.3
2019-01-31T00:24:46.475Z,-1.3
2019-01-31T00:25:46.652Z,-1.3
2019-01-31T00:26:46.540Z,-1.3
2019-01-31T00:27:46.417Z,-1.3
2019-01-31T00:28:46.524Z,-1.3
2019-01-31T00:29:46.411Z,-1.2
2019-01-31T00:30:46.290Z,-1.2
2019-01-31T00:31:46.894Z,-1.3
2019-01-31T00:32:47.304Z,-1.2
2019-01-31T00:33:47.198Z,-1.2
2019-01-31T00:34:47.332Z,-1.1
2019-01-31T00:35:47.218Z,-1.1
2019-01-31T00:36:47.157Z,-1.2
2019-01-31T00:37:47.088Z,-1.1
2019-01-31T00:38:57.692Z,-1.1
2019-01-31T00:39:57.672Z,-1.2
2019-01-31T00:40:57.580Z,-1.2
2019-01-31T00:41:57.565Z,-1.3
2019-01-31T00:42:57.874Z,-1.4
2019-01-31T00:43:57.977Z,-1.4
2019-01-31T00:44:57.866Z,-1.5
2019-01-31T00:45:57.736Z,-1.6
2019-01-31T00:46:57.618Z,-1.6
2019-01-31T00:47:57.552Z,-1.6
2019-01-31T00:48:57.437Z,-1.7
2019-01-31T00:49:57.496Z,-1.7
2019-01-31T00:50:57.843Z,-1.8
2019-01-31T00:51:57.736Z,-1.8
2019-01-31T00:52:58.089Z,-1.8
2019-01-31T00:53:58.002Z,-1.9
2019-01-31T00:54:57.894Z,-1.9
2019-01-31T00:55:57.910Z,-1.9
2019-01-31T00:56:57.815Z,-1.9
2019-01-31T00:57:57.730Z,-1.8
2019-01-31T00:58:57.624Z,-1.9
2019-01-31T00:59:57.508Z,-1.9
2019-01-31T01:00:57.420Z,-1.9
2019-01-31T01:01:57.310Z,-1.9
2019-01-31T01:02:57.645Z,-1.9
2019-01-31T01:03:57.520Z,-1.9
2019-01-31T01:04:57.423Z,-1.9
2019-01-31T01:05:57.324Z,-1.9
2019-01-31T01:06:57.454Z,-1.9
2019-01-31T01:07:57.376Z,-1.9
2019-01-31T01:09:08.618Z,-1.9
2019-01-31T01:10:08.507Z,-1.9
2019-01-31T01:11:08.396Z,-1.9
2019-01-31T01:12:08.337Z,-1.9
2019-01-31T01:13:08.724Z,-1.9
2019-01-31T01:14:08.599Z,-1.9
2019-01-31T01:15:08.474Z,-1.9
2019-01-31T01:16:08.354Z,-1.9
2019-01-31T01:17:08.925Z,-2
2019-01-31T01:18:08.818Z,-2
2019-01-31T01:19:08.728Z,-1.9
2019-01-31T01:20:08.846Z,-2
2019-01-31T01:21:08.755Z,-2
2019-01-31T01:22:08.647Z,-2
2019-01-31T01:23:08.960Z,-2
2019-01-31T01:24:08.865Z,-2
2019-01-31T01:25:08.766Z,-2
2019-01-31T01:26:08.663Z,-2
2019-01-31T01:27:08.562Z,-2
2019-01-31T01:28:08.462Z,-2
2019-01-31T01:29:09.037Z,-2
2019-01-31T01:30:09.057Z,-2
2019-01-31T01:31:08.979Z,-2
2019-01-31T01:32:08.927Z,-2
2019-01-31T01:33:09.251Z,-2
2019-01-31T01:34:09.367Z,-2
2019-01-31T01:35:09.282Z,-2
2019-01-31T01:36:09.162Z,-2
2019-01-31T01:37:09.765Z,-2.1
2019-01-31T01:38:09.665Z,-2
2019-01-31T01:39:19.993Z,-2
2019-01-31T01:40:19.918Z,-2.1
2019-01-31T01:41:19.816Z,-2.1
2019-01-31T01:42:19.706Z,-2.1
2019-01-31T01:43:20.339Z,-2.1
2019-01-31T01:44:20.218Z,-2.1
2019-01-31T01:45:20.091Z,-2.1
2019-01-31T01:46:20.249Z,-2.1
2019-01-31T01:47:20.146Z,-2.1
2019-01-31T01:48:20.026Z,-2.1
2019-01-31T01:49:19.907Z,-2
2019-01-31T01:50:20.401Z,-2.1
2019-01-31T01:51:20.311Z,-2.1
2019-01-31T01:52:20.198Z,-2.1
2019-01-31T01:53:21.221Z,-2.1
2019-01-31T01:54:21.113Z,-2.1
2019-01-31T01:55:21.262Z,-2.1
2019-01-31T01:56:21.165Z,-2.1
2019-01-31T01:57:21.114Z,-2.1
2019-01-31T01:58:21.046Z,-2.1
2019-01-31T01:59:20.957Z,-2.1
2019-01-31T02:00:20.841Z,-2.1
2019-01-31T02:01:20.730Z,-2.1
2019-01-31T02:02:20.633Z,-2.1
2019-01-31T02:03:21.171Z,-2.1
2019-01-31T02:04:21.149Z,-2.1
2019-01-31T02:05:21.031Z,-2.1
2019-01-31T02:06:21.371Z,-2.2
2019-01-31T02:07:21.279Z,-2.2
2019-01-31T02:08:21.209Z,-2.2
2019-01-31T02:09:31.018Z,-2.1
2019-01-31T02:10:31.259Z,-2.1
2019-01-31T02:11:31.148Z,-2.1
2019-01-31T02:12:31.035Z,-2.2
2019-01-31T02:13:31.355Z,-2.2
2019-01-31T02:14:31.253Z,-2.2
2019-01-31T02:15:31.159Z,-2.2
2019-01-31T02:16:31.415Z,-2.2
2019-01-31T02:17:31.320Z,-2.1
2019-01-31T02:18:31.203Z,-2
2019-01-31T02:19:31.896Z,-1.9
2019-01-31T02:20:31.915Z,-2
2019-01-31T02:21:31.842Z,-1.9
2019-01-31T02:22:31.741Z,-1.9
2019-01-31T02:23:32.081Z,-1.9
2019-01-31T02:24:31.978Z,-1.9
2019-01-31T02:25:31.883Z,-1.8
2019-01-31T02:26:31.777Z,-1.7
2019-01-31T02:27:31.671Z,-1.8
2019-01-31T02:28:31.604Z,-1.7
2019-01-31T02:29:31.730Z,-1.7
2019-01-31T02:30:31.641Z,-1.7
2019-01-31T02:31:31.552Z,-1.7
2019-01-31T02:32:31.616Z,-1.6
2019-01-31T02:33:31.995Z,-1.7
2019-01-31T02:34:31.880Z,-1.7
2019-01-31T02:35:32.801Z,-1.7
2019-01-31T02:36:32.689Z,-1.7
2019-01-31T02:37:32.572Z,-1.6
2019-01-31T02:38:33.151Z,-1.6
2019-01-31T02:39:43.930Z,-1.6
2019-01-31T02:40:43.809Z,-1.7
2019-01-31T02:41:43.712Z,-1.7
2019-01-31T02:42:43.637Z,-1.8
2019-01-31T02:43:44.215Z,-1.8
2019-01-31T02:44:44.107Z,-1.8
2019-01-31T02:45:44.015Z,-1.9
2019-01-31T02:46:43.913Z,-1.9
2019-01-31T02:47:43.943Z,-1.9
2019-01-31T02:48:43.899Z,-1.9
2019-01-31T02:49:43.781Z,-1.9
2019-01-31T02:50:43.667Z,-1.3
2019-01-31T02:51:43.564Z,-1.9
2019-01-31T02:52:43.568Z,-1.8
2019-01-31T02:53:44.162Z,-1.8
2019-01-31T02:54:44.083Z,-1.7
2019-01-31T02:55:44.192Z,-1.7
2019-01-31T02:56:44.083Z,-1.6
2019-01-31T02:57:43.979Z,-1.6
2019-01-31T02:58:44.607Z,-1.6
2019-01-31T02:59:44.517Z,-1.6
2019-01-31T03:00:44.415Z,-1.6
2019-01-31T03:01:44.329Z,-1.6
2019-01-31T03:02:44.231Z,-1.6
2019-01-31T03:03:44.539Z,-1.6
2019-01-31T03:04:44.682Z,-1.5
2019-01-31T03:05:44.573Z,-1.5
2019-01-31T03:06:44.457Z,-1.5
2019-01-31T03:07:44.364Z,-1.5
2019-01-31T03:08:44.296Z,-1.6
2019-01-31T03:09:55.615Z,-1.6
2019-01-31T03:10:55.485Z,-1.6
2019-01-31T03:11:56.092Z,-1.6
2019-01-31T03:12:56.032Z,-1.6
2019-01-31T03:13:56.607Z,-1.7
2019-01-31T03:15:10.385Z,-1.7
2019-01-31T03:16:10.491Z,-1.7
2019-01-31T03:17:11.051Z,-1.7
2019-01-31T03:18:10.927Z,-1.8
2019-01-31T03:19:10.827Z,-1.8
2019-01-31T03:20:10.976Z,-1.8
2019-01-31T03:21:10.912Z,-1.9
2019-01-31T03:22:10.797Z,-1.9
2019-01-31T03:23:10.697Z,-1.9
2019-01-31T03:24:11.689Z,-1.9
2019-01-31T03:25:11.559Z,-1.9
2019-01-31T03:26:11.508Z,-1.9
2019-01-31T03:27:11.394Z,-1.9
2019-01-31T03:28:11.328Z,-1.9
2019-01-31T03:29:11.258Z,-1.9
2019-01-31T03:30:11.848Z,-2
2019-01-31T03:31:11.808Z,-2
2019-01-31T03:32:11.987Z,-1.9
2019-01-31T03:33:12.627Z,-2
2019-01-31T03:34:13.017Z,-2
2019-01-31T03:35:12.913Z,-2
2019-01-31T03:36:12.798Z,-2
2019-01-31T03:37:12.700Z,-1.9
2019-01-31T03:38:12.589Z,-1.9
2019-01-31T03:39:12.707Z,-1.8
2019-01-31T03:40:12.729Z,-1.7
2019-01-31T03:41:12.615Z,-1.7
2019-01-31T03:42:12.768Z,-1.6
2019-01-31T03:43:12.639Z,-1.6
2019-01-31T03:44:12.948Z,-1.5
2019-01-31T03:45:12.823Z,-1.6
2019-01-31T03:46:12.729Z,-1.5
2019-01-31T03:47:12.663Z,-1.5
2019-01-31T03:48:12.555Z,-1.5
2019-01-31T03:49:12.553Z,-1.5
2019-01-31T03:50:12.455Z,-1.6
2019-01-31T03:51:12.359Z,-1.6
2019-01-31T03:52:12.361Z,-1.6
2019-01-31T03:53:12.273Z,-1.7
2019-01-31T03:54:12.788Z,-1.7
2019-01-31T03:55:12.837Z,-1.7
2019-01-31T03:56:16.117Z,-1.8
2019-01-31T03:57:16.109Z,-1.8
2019-01-31T03:58:16.249Z,-1.9
2019-01-31T03:59:16.149Z,-1.9
2019-01-31T04:00:16.060Z,-2
2019-01-31T04:01:15.943Z,-1.9
2019-01-31T04:02:15.823Z,-2
2019-01-31T04:03:15.721Z,-2
2019-01-31T04:04:16.417Z,-2.1
2019-01-31T04:05:16.296Z,-2.1
2019-01-31T04:06:16.431Z,-2.1
2019-01-31T04:07:16.316Z,-2.1
2019-01-31T04:08:16.252Z,-2.1
2019-01-31T04:09:16.177Z,0.4
2019-01-31T04:10:19.832Z,-2
2019-01-31T04:11:19.737Z,-1.9
2019-01-31T04:12:19.644Z,-1.9
2019-01-31T04:13:19.574Z,-1.8
2019-01-31T04:14:20.032Z,-1.7
2019-01-31T04:15:19.926Z,-1.8
2019-01-31T04:16:20.143Z,-1.8
2019-01-31T04:17:20.074Z,-1.8
2019-01-31T04:18:19.966Z,-1.9
2019-01-31T04:19:20.087Z,-1.9
2019-01-31T04:20:20.097Z,-1.9
2019-01-31T04:21:20.002Z,-1.9
2019-01-31T04:22:19.928Z,-2
2019-01-31T04:23:20.125Z,-2
2019-01-31T04:24:20.683Z,-2
2019-01-31T04:25:20.607Z,-2.1
2019-01-31T04:26:20.501Z,-2.1
2019-01-31T04:27:20.387Z,-2.1
2019-01-31T04:28:20.306Z,-2.1
2019-01-31T04:29:20.188Z,-2.1
2019-01-31T04:30:20.070Z,-2.2
2019-01-31T04:31:19.982Z,-2.2
2019-01-31T04:32:19.893Z,-2.2
2019-01-31T04:33:19.820Z,-2.3
2019-01-31T04:34:20.185Z,-2.4
2019-01-31T04:35:20.079Z,-2.4
2019-01-31T04:36:19.974Z,-2.4
2019-01-31T04:37:19.878Z,-2.4
2019-01-31T04:38:20.882Z,-2.4
2019-01-31T04:39:20.783Z,-2.2
2019-01-31T04:40:32.225Z,-2.2
2019-01-31T04:41:32.102Z,-2.2
2019-01-31T04:42:32.013Z,-2.2
2019-01-31T04:43:31.940Z,-2.2
2019-01-31T04:44:32.263Z,0
2019-01-31T04:45:32.147Z,-2.2
2019-01-31T04:46:32.036Z,-2.1
2019-01-31T04:47:31.932Z,-2.1
2019-01-31T04:48:31.841Z,-2.2
2019-01-31T04:49:31.781Z,-2.2
2019-01-31T04:50:31.779Z,-2.2
2019-01-31T04:51:31.706Z,-2.2
2019-01-31T04:52:31.608Z,-2.2
2019-01-31T04:53:31.506Z,-2.3
2019-01-31T04:54:31.846Z,-2.3
2019-01-31T04:55:31.760Z,-2.4
2019-01-31T04:56:31.640Z,-2.4
2019-01-31T04:57:31.546Z,-2.4
2019-01-31T04:58:31.475Z,-2.4
2019-01-31T04:59:31.385Z,-2.5
2019-01-31T05:00:31.273Z,-2.5
2019-01-31T05:01:31.203Z,-2.6
2019-01-31T05:02:31.082Z,-2.6
2019-01-31T05:03:31.104Z,-2.7
2019-01-31T05:04:31.428Z,-2.7
2019-01-31T05:05:31.333Z,-2.6
2019-01-31T05:06:31.222Z,-2.6
2019-01-31T05:07:31.131Z,-2.6
2019-01-31T05:08:31.621Z,-2.6
2019-01-31T05:09:31.513Z,-2.6
2019-01-31T05:10:43.926Z,-2.5
2019-01-31T05:11:43.852Z,-2.5
2019-01-31T05:12:43.755Z,-2.4
2019-01-31T05:13:43.684Z,-2.4
2019-01-31T05:14:44.051Z,-2.4
2019-01-31T05:15:43.985Z,-2.3
2019-01-31T05:16:43.871Z,-2.3
2019-01-31T05:17:43.857Z,-2.3
2019-01-31T05:18:43.768Z,-2.3
2019-01-31T05:19:43.642Z,-2.3
2019-01-31T05:20:43.544Z,-2.3
2019-01-31T05:21:43.428Z,-2.3
2019-01-31T05:22:43.315Z,-2.3
2019-01-31T05:23:43.232Z,-2.3
2019-01-31T05:24:43.547Z,-2.3
2019-01-31T05:25:43.441Z,-2.4
2019-01-31T05:26:43.494Z,-2.4
2019-01-31T05:27:43.380Z,-2.4
2019-01-31T05:28:43.274Z,-2.5
2019-01-31T05:29:43.146Z,-2.5
2019-01-31T05:30:43.048Z,-2.5
2019-01-31T05:31:42.975Z,-2.6
2019-01-31T05:32:42.890Z,-2.6
2019-01-31T05:33:42.806Z,-2.6
2019-01-31T05:34:43.153Z,-2.7
2019-01-31T05:35:43.128Z,-2.8
2019-01-31T05:36:43.021Z,-2.9
2019-01-31T05:37:42.925Z,-3
2019-01-31T05:38:42.910Z,-3
2019-01-31T05:39:42.805Z,-3
2019-01-31T05:40:56.052Z,-3
2019-01-31T05:41:56.032Z,-3.1
2019-01-31T05:42:55.946Z,-3.2
2019-01-31T05:43:55.960Z,-3.2
2019-01-31T05:44:56.298Z,-3.2
2019-01-31T05:45:56.196Z,-3.3
2019-01-31T05:46:56.095Z,-3.3
2019-01-31T05:47:55.978Z,-3.4
2019-01-31T05:48:55.882Z,-3.4
2019-01-31T05:49:55.786Z,-3.5
2019-01-31T05:50:55.666Z,-3.4
2019-01-31T05:51:55.539Z,-3.4
2019-01-31T05:52:55.451Z,-3.4
2019-01-31T05:53:55.369Z,-3.4
2019-01-31T05:54:55.671Z,-3.4
2019-01-31T05:55:55.595Z,-3.3
2019-01-31T05:56:55.483Z,-3.3
2019-01-31T05:57:55.381Z,-3.3
2019-01-31T05:58:55.406Z,-3.3
2019-01-31T05:59:55.302Z,-3.3
2019-01-31T06:00:55.221Z,-3.3
2019-01-31T06:01:55.136Z,-3.3
2019-01-31T06:02:55.025Z,-3.3
2019-01-31T06:03:54.931Z,-3.3
2019-01-31T06:04:55.273Z,-3.3
2019-01-31T06:05:55.232Z,-3.3
2019-01-31T06:06:55.138Z,-3.3
2019-01-31T06:07:55.024Z,-3.2
2019-01-31T06:08:54.902Z,-3.3
2019-01-31T06:09:54.814Z,-3.3
2019-01-31T06:10:54.716Z,-3.3
2019-01-31T06:12:07.694Z,-3.4
2019-01-31T06:13:07.583Z,-3.5
2019-01-31T06:14:07.450Z,-3.5
2019-01-31T06:15:07.760Z,-3.5
2019-01-31T06:16:07.671Z,-3.5
2019-01-31T06:17:07.570Z,-3.6
2019-01-31T06:18:07.515Z,-3.6
2019-01-31T06:19:07.452Z,-3.6
2019-01-31T06:20:07.337Z,-3.6
2019-01-31T06:21:07.216Z,-3.7
2019-01-31T06:22:07.212Z,-3.7
2019-01-31T06:23:07.109Z,-3.7
2019-01-31T06:24:07.002Z,-3.8
2019-01-31T06:25:07.419Z,-3.8
2019-01-31T06:26:07.311Z,-3.8
2019-01-31T06:27:07.236Z,-3.8
2019-01-31T06:28:07.136Z,-3.8
2019-01-31T06:29:07.050Z,-3.8
2019-01-31T06:30:06.953Z,-3.8
2019-01-31T06:31:06.854Z,-3.7
2019-01-31T06:32:09.809Z,-3.7
2019-01-31T06:33:09.745Z,-3.7
2019-01-31T06:34:09.657Z,-3.7
2019-01-31T06:35:10.016Z,-3.7
2019-01-31T06:36:09.922Z,-3.7
2019-01-31T06:37:09.854Z,-3.8
2019-01-31T06:38:09.752Z,-3.7
2019-01-31T06:39:09.652Z,-3.7
2019-01-31T06:40:09.553Z,-3.7
2019-01-31T06:41:19.442Z,-3.6
2019-01-31T06:42:19.338Z,-3.7
2019-01-31T06:43:19.235Z,-3.7
2019-01-31T06:44:19.148Z,-3.7
2019-01-31T06:45:19.447Z,-3.7
2019-01-31T06:46:19.382Z,-3.7
2019-01-31T06:47:19.275Z,-3.7
2019-01-31T06:48:19.186Z,-3.6
2019-01-31T06:49:19.073Z,-3.6
2019-01-31T06:50:18.975Z,-3.6
2019-01-31T06:51:18.884Z,-3.6
2019-01-31T06:52:18.824Z,-3.6
2019-01-31T06:53:18.728Z,-3.6
2019-01-31T06:55:18.850Z,-3.5
2019-01-31T06:56:18.770Z,-3.5
2019-01-31T06:57:18.690Z,-3.4
2019-01-31T06:58:18.584Z,-3.4
2019-01-31T06:59:18.497Z,-3.4
2019-01-31T07:00:18.411Z,-3.5
2019-01-31T07:01:18.317Z,-3.5
2019-01-31T07:02:18.229Z,-3.5
2019-01-31T07:03:18.144Z,-3.5
2019-01-31T07:04:18.031Z,-3.5
2019-01-31T07:05:18.383Z,-3.5
2019-01-31T07:06:18.294Z,-3.5
2019-01-31T07:07:18.220Z,-3.5
2019-01-31T07:08:18.101Z,-3.5
2019-01-31T07:09:18.069Z,-3.6
2019-01-31T07:10:17.970Z,-3.5
2019-01-31T07:11:29.291Z,-3.5
2019-01-31T07:12:30.301Z,-3.6
2019-01-31T07:13:30.279Z,-3.6
2019-01-31T07:14:30.170Z,-3.6
2019-01-31T07:15:30.524Z,-3.6
2019-01-31T07:16:30.429Z,-3.6
2019-01-31T07:17:30.342Z,-3.5
2019-01-31T07:18:30.238Z,-3.5
2019-01-31T07:19:30.276Z,-3.4
2019-01-31T07:20:30.181Z,-3.4
2019-01-31T07:21:30.065Z,-3.4
2019-01-31T07:22:29.986Z,-3.4
2019-01-31T07:23:29.879Z,-3.4
2019-01-31T07:24:29.767Z,-3.4
2019-01-31T07:25:30.220Z,-3.4
2019-01-31T07:26:30.114Z,-3.4
2019-01-31T07:27:30.023Z,-3.4
2019-01-31T07:28:30.033Z,-3.3
2019-01-31T07:29:29.906Z,-3.3
2019-01-31T07:30:29.803Z,-3.3
2019-01-31T07:31:29.703Z,-3.3
2019-01-31T07:32:29.661Z,-3.2
2019-01-31T07:33:29.573Z,-3.2
2019-01-31T07:34:29.530Z,-3.3
2019-01-31T07:35:30.079Z,-3.3
2019-01-31T07:36:29.976Z,-3.2
2019-01-31T07:37:29.895Z,-3.2
2019-01-31T07:38:29.920Z,-3.2
2019-01-31T07:39:29.813Z,-3.2
2019-01-31T07:40:29.691Z,-3.2
2019-01-31T07:41:41.801Z,-3.2
2019-01-31T07:42:41.755Z,-3.1
2019-01-31T07:43:41.671Z,-3
2019-01-31T07:44:41.648Z,-2.8
2019-01-31T07:45:41.957Z,-2.7
2019-01-31T07:46:41.847Z,-2.6
2019-01-31T07:47:41.765Z,-2.5
2019-01-31T07:48:41.681Z,-2.3
2019-01-31T07:49:41.585Z,-2.2
2019-01-31T07:50:41.580Z,-2.1
2019-01-31T07:51:41.461Z,-2
2019-01-31T07:52:41.360Z,-1.9
2019-01-31T07:53:41.259Z,-1.8
2019-01-31T07:54:41.175Z,-1.8
2019-01-31T07:55:41.489Z,-1.7
2019-01-31T07:56:41.490Z,-1.6
2019-01-31T07:57:41.413Z,-1.5
2019-01-31T07:58:41.462Z,-1.4
2019-01-31T07:59:41.471Z,-1.4
2019-01-31T08:00:41.391Z,-1.3
2019-01-31T08:01:41.588Z,-1.2
2019-01-31T08:02:41.465Z,-1.2
2019-01-31T08:03:41.476Z,-1.1
2019-01-31T08:04:41.379Z,-1
2019-01-31T08:05:41.692Z,-1
2019-01-31T08:06:41.586Z,-0.9
2019-01-31T08:07:41.507Z,-0.9
2019-01-31T08:08:41.403Z,-0.8
2019-01-31T08:09:41.287Z,-0.7
2019-01-31T08:10:41.170Z,-0.7
2019-01-31T08:11:53.425Z,-0.7
2019-01-31T08:12:53.332Z,-0.6
2019-01-31T08:13:53.217Z,-0.6
2019-01-31T08:14:53.110Z,-0.5
2019-01-31T08:15:53.407Z,-0.5
2019-01-31T08:16:53.303Z,-0.4
2019-01-31T08:17:53.313Z,-0.4
2019-01-31T08:18:53.245Z,-0.2
2019-01-31T08:19:53.151Z,-0.1
2019-01-31T08:20:53.057Z,0
2019-01-31T08:21:52.925Z,-0.1
2019-01-31T08:22:52.817Z,0
2019-01-31T08:23:52.701Z,0.1
2019-01-31T08:24:52.613Z,0.1
2019-01-31T08:25:52.943Z,0.2
2019-01-31T08:26:55.638Z,0.3
2019-01-31T08:27:55.952Z,0.3
2019-01-31T08:28:55.865Z,0.4
2019-01-31T08:29:55.765Z,0.5
2019-01-31T08:30:55.649Z,0.6
2019-01-31T08:31:55.539Z,0.6
2019-01-31T08:32:55.421Z,0.6
2019-01-31T08:33:55.297Z,0.7
2019-01-31T08:34:55.201Z,0.7
2019-01-31T08:35:55.546Z,0.8
2019-01-31T08:36:55.439Z,0.9
2019-01-31T08:37:55.329Z,0.9
2019-01-31T08:38:55.217Z,0.9
2019-01-31T08:39:55.128Z,0.8
2019-01-31T08:40:55.033Z,0.9
2019-01-31T08:42:04.522Z,0.9
2019-01-31T08:43:04.433Z,0.9
2019-01-31T08:44:04.323Z,0.9
2019-01-31T08:45:04.263Z,0.9
2019-01-31T08:46:04.749Z,1
2019-01-31T08:47:04.629Z,1
2019-01-31T08:48:04.519Z,1.1
2019-01-31T08:49:04.425Z,1.2
2019-01-31T08:50:04.321Z,1.3
2019-01-31T08:51:04.226Z,1.3
2019-01-31T08:52:04.227Z,1.3
2019-01-31T08:53:04.121Z,1.3
2019-01-31T08:54:06.312Z,1.3
2019-01-31T08:55:06.215Z,1.3
2019-01-31T08:56:06.526Z,1.3
2019-01-31T08:57:06.436Z,1.4
2019-01-31T08:58:06.347Z,1.4
2019-01-31T08:59:06.251Z,1.4
2019-01-31T09:00:06.147Z,1.4
2019-01-31T09:01:06.074Z,1.5
2019-01-31T09:02:05.975Z,1.5
2019-01-31T09:03:05.859Z,1.6
2019-01-31T09:04:05.757Z,1.5
2019-01-31T09:05:05.675Z,1.6
2019-01-31T09:06:06.055Z,1.6
2019-01-31T09:07:05.952Z,1.5
2019-01-31T09:08:05.877Z,1.5
2019-01-31T09:09:05.754Z,1.7
2019-01-31T09:10:05.655Z,1.7
2019-01-31T09:11:05.545Z,1.8
2019-01-31T09:12:16.069Z,1.9
2019-01-31T09:13:15.946Z,2.1
2019-01-31T09:14:15.828Z,2.2
2019-01-31T09:15:15.712Z,2.4
2019-01-31T09:16:16.112Z,2.4
2019-01-31T09:17:16.027Z,2.4
2019-01-31T09:18:15.943Z,2.5
2019-01-31T09:19:15.948Z,2.6
2019-01-31T09:20:15.842Z,2.6
2019-01-31T09:21:15.797Z,2.6
2019-01-31T09:22:15.686Z,2.7
2019-01-31T09:23:15.629Z,2.7
2019-01-31T09:24:15.548Z,2.7
2019-01-31T09:25:15.443Z,2.6
2019-01-31T09:26:15.790Z,2.6
2019-01-31T09:27:15.680Z,2.6
2019-01-31T09:28:15.626Z,2.6
2019-01-31T09:29:15.508Z,2.6
2019-01-31T09:30:15.432Z,2.7
2019-01-31T09:31:15.334Z,2.6
2019-01-31T09:32:15.228Z,2.6
2019-01-31T09:33:15.117Z,2.5
2019-01-31T09:34:15.006Z,2.5
2019-01-31T09:35:14.880Z,2.4
2019-01-31T09:36:15.296Z,2.5
2019-01-31T09:37:15.318Z,2.4
2019-01-31T09:38:15.222Z,2.5
2019-01-31T09:39:15.131Z,2.5
2019-01-31T09:40:15.034Z,2.5
2019-01-31T09:41:14.936Z,2.5
2019-01-31T09:42:25.993Z,2.5
2019-01-31T09:43:26.796Z,2.4
2019-01-31T09:44:26.691Z,2.4
2019-01-31T09:45:26.612Z,2.4
2019-01-31T09:46:26.964Z,2.3
2019-01-31T09:47:26.848Z,2.4
2019-01-31T09:48:26.782Z,2.3
2019-01-31T09:49:26.688Z,2.4
2019-01-31T09:50:28.780Z,2.4
2019-01-31T09:51:28.678Z,2.5
2019-01-31T09:52:28.574Z,2.6
2019-01-31T09:53:28.459Z,2.6
2019-01-31T09:54:28.420Z,2.7
2019-01-31T09:55:28.336Z,2.6
2019-01-31T09:56:28.676Z,2.6
2019-01-31T09:57:28.573Z,2.6
2019-01-31T09:58:28.875Z,2.6
2019-01-31T09:59:28.820Z,2.7
2019-01-31T10:00:28.734Z,2.7
2019-01-31T10:01:28.621Z,2.8
2019-01-31T10:02:28.543Z,2.7
2019-01-31T10:03:28.468Z,2.7
2019-01-31T10:04:28.371Z,2.5
2019-01-31T10:05:28.383Z,2.5
2019-01-31T10:06:28.717Z,2.5
2019-01-31T10:07:28.626Z,2.5
2019-01-31T10:08:28.550Z,2.4
2019-01-31T10:09:28.457Z,2.4
2019-01-31T10:10:28.546Z,2.3
2019-01-31T10:11:28.790Z,2.3
2019-01-31T10:12:39.247Z,2.3
2019-01-31T10:13:39.436Z,2.3
2019-01-31T10:14:40.128Z,2.4
2019-01-31T10:15:40.283Z,2.4
2019-01-31T10:16:41.243Z,2.3
2019-01-31T10:17:41.458Z,2.3
2019-01-31T10:18:41.617Z,2.2
2019-01-31T10:19:41.891Z,2.3
2019-01-31T10:20:42.322Z,2.3
2019-01-31T10:21:42.556Z,2.3
2019-01-31T10:22:42.678Z,2.4
2019-01-31T10:23:43.196Z,2.4
2019-01-31T10:24:43.328Z,2.4
2019-01-31T10:25:43.337Z,2.5
2019-01-31T10:26:43.706Z,2.5
2019-01-31T10:27:43.603Z,2.5
2019-01-31T10:28:43.512Z,2.6
2019-01-31T10:29:43.400Z,2.5
2019-01-31T10:30:43.297Z,2.6
2019-01-31T10:31:43.220Z,2.6
2019-01-31T10:32:43.124Z,2.6
2019-01-31T10:33:43.231Z,2.6
2019-01-31T10:34:43.230Z,2.6
2019-01-31T10:35:43.116Z,2.6
2019-01-31T10:36:43.444Z,2.7
2019-01-31T10:37:43.350Z,2.7
2019-01-31T10:38:43.304Z,2.8
2019-01-31T10:39:43.185Z,2.8
2019-01-31T10:40:43.072Z,2.9
2019-01-31T10:41:42.962Z,2.9
2019-01-31T10:42:52.774Z,2.9
2019-01-31T10:43:52.686Z,2.9
2019-01-31T10:44:52.560Z,2.9
2019-01-31T10:45:52.442Z,2.8
2019-01-31T10:46:52.751Z,2.8
2019-01-31T10:47:52.682Z,2.8
2019-01-31T10:48:52.583Z,2.8
2019-01-31T10:49:52.473Z,2.8
2019-01-31T10:50:52.356Z,2.8
2019-01-31T10:51:52.230Z,2.9
2019-01-31T10:52:52.193Z,2.8
2019-01-31T10:53:52.120Z,2.9
2019-01-31T10:54:52.009Z,2.9
2019-01-31T10:55:51.914Z,2.8
2019-01-31T10:56:52.223Z,2.8
2019-01-31T10:57:52.107Z,2.8
2019-01-31T10:58:52.012Z,2.9
2019-01-31T10:59:51.914Z,2.8
2019-01-31T11:00:51.816Z,2.8
2019-01-31T11:01:51.700Z,2.9
2019-01-31T11:02:51.573Z,3.1
2019-01-31T11:03:51.474Z,3.2
2019-01-31T11:04:51.361Z,3.2
2019-01-31T11:05:51.247Z,3.1
2019-01-31T11:06:51.673Z,3.1
2019-01-31T11:07:51.588Z,3.2
2019-01-31T11:08:51.498Z,3.2
2019-01-31T11:09:51.402Z,3.3
2019-01-31T11:10:51.334Z,3.3
2019-01-31T11:11:51.243Z,3.2
2019-01-31T11:13:01.469Z,3.2
2019-01-31T11:14:01.363Z,3.2
2019-01-31T11:15:01.301Z,3.1
2019-01-31T11:16:01.175Z,2.9
2019-01-31T11:17:01.592Z,2.8
2019-01-31T11:18:01.488Z,2.8
2019-01-31T11:19:13.218Z,2.9
2019-01-31T11:20:13.148Z,2.9
2019-01-31T11:21:13.042Z,2.8
2019-01-31T11:22:12.928Z,2.8
2019-01-31T11:23:12.838Z,2.8
2019-01-31T11:24:12.728Z,2.9
2019-01-31T11:25:12.641Z,2.8
2019-01-31T11:26:12.542Z,2.9
2019-01-31T11:27:12.866Z,2.8
2019-01-31T11:28:12.791Z,2.7
2019-01-31T11:29:12.688Z,2.8
2019-01-31T11:30:12.577Z,2.6
2019-01-31T11:31:12.641Z,2.6
2019-01-31T11:32:12.532Z,2.5
2019-01-31T11:33:12.434Z,2.5
2019-01-31T11:34:12.323Z,2.5
2019-01-31T11:35:12.252Z,2.5
2019-01-31T11:36:12.143Z,2.6
2019-01-31T11:37:12.519Z,2.5
2019-01-31T11:38:12.422Z,2.5
2019-01-31T11:39:12.319Z,2.5
2019-01-31T11:40:12.202Z,2.5
2019-01-31T11:41:12.098Z,2.6
2019-01-31T11:42:12.025Z,2.5
2019-01-31T11:43:12.687Z,2.4
2019-01-31T11:44:12.587Z,2.5
2019-01-31T11:45:12.497Z,2.6
2019-01-31T11:46:12.384Z,2.5
2019-01-31T11:47:12.734Z,2.4
2019-01-31T11:48:12.643Z,2.3
2019-01-31T11:49:12.538Z,2.3
2019-01-31T11:50:12.436Z,2.3
2019-01-31T11:51:12.321Z,2.4
2019-01-31T11:52:12.362Z,2.3
2019-01-31T11:53:12.318Z,2.1
2019-01-31T11:54:12.286Z,2.1
2019-01-31T11:55:12.254Z,2
2019-01-31T11:56:12.142Z,2.1
2019-01-31T11:57:12.589Z,2
2019-01-31T11:58:12.558Z,2
2019-01-31T11:59:12.461Z,2
2019-01-31T12:00:12.363Z,2
2019-01-31T12:01:12.389Z,2
2019-01-31T12:02:12.282Z,2.1
2019-01-31T12:03:12.196Z,2.2
2019-01-31T12:04:12.150Z,2.2
2019-01-31T12:05:12.055Z,2.3
2019-01-31T12:06:11.951Z,2.3
2019-01-31T12:07:12.325Z,2.3
2019-01-31T12:08:12.244Z,2.5
2019-01-31T12:09:12.278Z,2.5
2019-01-31T12:10:12.262Z,2.5
2019-01-31T12:11:12.155Z,2.5
2019-01-31T12:12:12.121Z,2.6
2019-01-31T12:13:24.270Z,2.6
2019-01-31T12:14:24.196Z,2.6
2019-01-31T12:15:24.078Z,2.7
2019-01-31T12:16:23.987Z,2.7
2019-01-31T12:17:24.301Z,2.8
2019-01-31T12:18:24.317Z,2.6
2019-01-31T12:19:24.211Z,2.7
2019-01-31T12:20:24.121Z,2.7
2019-01-31T12:21:24.035Z,2.8
2019-01-31T12:22:24.035Z,2.7
2019-01-31T12:23:23.979Z,2.7
2019-01-31T12:24:23.881Z,2.6
2019-01-31T12:25:23.780Z,2.5
2019-01-31T12:26:23.679Z,2.5
2019-01-31T12:27:24.019Z,2.5
2019-01-31T12:28:23.896Z,2.5
2019-01-31T12:29:23.771Z,2.3
2019-01-31T12:30:23.736Z,2.4
2019-01-31T12:31:23.726Z,2.4
2019-01-31T12:32:23.629Z,2.4
2019-01-31T12:33:23.511Z,2.3
2019-01-31T12:34:23.609Z,2.3
2019-01-31T12:35:23.519Z,2.2
2019-01-31T12:36:23.421Z,2.2
2019-01-31T12:37:23.799Z,2.1
2019-01-31T12:38:23.673Z,2.1
2019-01-31T12:39:23.571Z,2.1
2019-01-31T12:40:23.467Z,2
2019-01-31T12:41:23.356Z,2
2019-01-31T12:42:23.359Z,2.1
2019-01-31T12:43:35.982Z,2.2
2019-01-31T12:44:35.869Z,2.2
2019-01-31T12:45:35.771Z,2.4
2019-01-31T12:46:35.691Z,2.4
2019-01-31T12:47:36.065Z,2.3
2019-01-31T12:48:35.957Z,2.3
2019-01-31T12:49:35.865Z,2.4
2019-01-31T12:50:35.757Z,2.5
2019-01-31T12:51:35.657Z,2.4
2019-01-31T12:52:35.567Z,2.4
2019-01-31T12:53:35.475Z,2.4
2019-01-31T12:54:35.369Z,2.3
2019-01-31T12:55:35.254Z,2.3
2019-01-31T12:56:35.137Z,2.3
2019-01-31T12:57:35.579Z,2.3
2019-01-31T12:58:35.465Z,2.2
2019-01-31T12:59:35.351Z,2.2
2019-01-31T13:00:35.253Z,2.2
2019-01-31T13:01:35.303Z,2.2
2019-01-31T13:02:35.207Z,2.2
2019-01-31T13:03:35.122Z,2.1
2019-01-31T13:04:35.003Z,2.1
2019-01-31T13:05:34.900Z,2
2019-01-31T13:06:34.787Z,2
2019-01-31T13:07:35.135Z,2
2019-01-31T13:08:35.059Z,2
2019-01-31T13:09:34.967Z,2.1
2019-01-31T13:10:34.883Z,2.1
2019-01-31T13:11:34.788Z,2.1
2019-01-31T13:12:34.680Z,2.1
2019-01-31T13:13:46.518Z,2.1
2019-01-31T13:14:46.485Z,2.1
2019-01-31T13:15:46.413Z,2.1
2019-01-31T13:16:46.331Z,2.1
2019-01-31T13:17:46.883Z,2.1
2019-01-31T13:18:46.791Z,2.1
2019-01-31T13:19:46.704Z,2.1
2019-01-31T13:20:46.589Z,2.1
2019-01-31T13:21:46.485Z,2.1
2019-01-31T13:22:46.393Z,2.1
2019-01-31T13:23:46.275Z,2
2019-01-31T13:24:46.199Z,1.9
2019-01-31T13:25:46.065Z,2
2019-01-31T13:26:45.961Z,2
2019-01-31T13:27:46.287Z,2.1
2019-01-31T13:28:46.166Z,2.1
2019-01-31T13:29:46.067Z,2.1
2019-01-31T13:30:45.975Z,2.1
2019-01-31T13:31:45.858Z,2.1
2019-01-31T13:32:45.769Z,2.2
2019-01-31T13:33:47.429Z,2.2
2019-01-31T13:34:47.338Z,2.3
2019-01-31T13:35:47.248Z,2.3
2019-01-31T13:36:47.151Z,2.3
2019-01-31T13:37:47.465Z,2.4
2019-01-31T13:38:47.361Z,2.5
2019-01-31T13:39:47.287Z,2.4